LiveATC.Net - Listen to live air traffic control over the Internet!


ICAO: KLFI  IATA: LFI   Airport: Langley Air Force Base
City: Hampton   State/Province: Virginia
Country: United States   Continent: North America
KLFI METAR Weather: KLFI 281256Z 26008KT 10SM FEW100 21/21 A2984 RMK AO2A SLP111 T02110209 $
KLFI Flight Activity (FlightAware)
KLFI Airport Info   (iFlightPlanner)
KLFI VFR Sectional Chart   (iFlightPlanner) 
KLFI IFR Low Altitude Chart   (iFlightPlanner) 
KLFI IFR High Altitude Chart   (iFlightPlanner) 

KLFI Del/Gnd/Twr
Feed Status: UP   Listeners: 0
Listen in your browser - HTML5 player (in browser, HTML5)
Click here to listen with your own player (launches your MP3 player)
Archive Access: KLFI Del/Gnd/Twr
FacilityFrequency
Langley Clearance Delivery257.625
Langley Ground275.800
Langley Tower236.600
Langley Tower253.500

NOTICE

Unauthorized use prohibited. See LiveATC.net Terms of Service


Airport/ARTCC Code
Frequency Search
(e.g., 124.400, 128.75)
Site-wide search
 


Browse Feeds
Top 50 Feeds
HF Oceanic Feeds
Coverage Map
Bad Weather Areas

LiveATC FAQ
Offer LiveATC feed
Contact LiveATC.net
Press Inquiries

LiveATC on iPhone
LiveATC on Android

LiveATC Mobile
(Mobile browser)

ATC Audio Archives
Interesting Recordings

LiveATC Forums


Home Page
About LiveATC.net


Terms of Use
Privacy Policy

AIRMETs/SIGMETs

FAA Airport Status
NAS Status
Arrival Demand


Server Software By:
Icecast.org
Liquidsoap